Time;durP1;ratioP1;P1;durP2;ratioP2;P2;SDS_P1;SDS_P2;PMS_P1;PMS_P2;Temp;Humidity;BMP_temperature;BMP_pressure;BME280_temperature;BME280_humidity;BME280_pressure;Samples;Min_cycle;Max_cycle;Signal;HPM_P1;HPM_P2
2022/11/20 00:01:30;;;;;;;10.00;9.20;;;;;;;5.71;100.00;99836.69;4989100;28;20211;-73
2022/11/20 00:03:57;;;;;;;9.63;8.83;;;;;;;5.73;100.00;99832.41;4982120;28;20662;-71
2022/11/20 00:06:23;;;;;;;9.43;8.63;;;;;;;5.77;100.00;99833.28;4985454;28;20281;-75
2022/11/20 00:08:49;;;;;;;9.43;8.63;;;;;;;5.80;100.00;99836.72;4982782;28;20737;-73
2022/11/20 00:11:17;;;;;;;9.53;8.73;;;;;;;5.85;100.00;99841.88;4981181;28;20799;-74
2022/11/20 00:13:44;;;;;;;9.00;8.20;;;;;;;5.90;100.00;99841.88;4984914;28;20186;-75
2022/11/20 00:16:11;;;;;;;9.23;8.43;;;;;;;5.96;100.00;99839.34;4984458;28;20212;-73
2022/11/20 00:18:36;;;;;;;8.30;7.60;;;;;;;6.04;100.00;99847.09;4985617;28;20219;-74
2022/11/20 00:21:07;;;;;;;7.73;7.03;;;;;;;6.12;100.00;99842.81;4984665;28;20192;-74
2022/11/20 00:23:33;;;;;;;7.10;6.50;;;;;;;6.20;100.00;99845.41;4982885;28;20217;-73
2022/11/20 00:26:06;;;;;;;6.87;6.27;;;;;;;6.31;100.00;99846.28;4978322;28;20174;-72
2022/11/20 00:28:32;;;;;;;6.87;6.27;;;;;;;6.37;100.00;99845.44;4998487;28;20215;-74
2022/11/20 00:31:16;;;;;;;6.47;5.97;;;;;;;6.44;100.00;99842.03;4986148;28;20188;-75
2022/11/20 00:33:43;;;;;;;6.37;5.77;;;;;;;6.49;100.00;99840.31;4983455;28;20726;-74
2022/11/20 00:36:19;;;;;;;6.87;6.17;;;;;;;6.54;100.00;99848.88;4984678;28;20203;-74
2022/11/20 00:38:45;;;;;;;6.43;5.83;;;;;;;6.55;100.00;99842.88;5003773;28;20194;-76
2022/11/20 00:41:14;;;;;;;6.63;6.03;;;;;;;6.62;100.00;99843.72;5013098;28;20187;-76
2022/11/20 00:43:40;;;;;;;6.40;5.90;;;;;;;6.66;100.00;99852.28;4988163;28;20192;-73
2022/11/20 00:46:13;;;;;;;6.30;5.80;;;;;;;6.67;100.00;99844.59;4991051;28;20229;-74
2022/11/20 00:48:38;;;;;;;7.63;6.30;;;;;;;6.70;100.00;99843.72;4986502;28;20292;-73
2022/11/20 00:51:04;;;;;;;6.37;5.73;;;;;;;6.69;100.00;99844.59;4987028;28;20287;-73
2022/11/20 00:53:29;;;;;;;6.70;6.10;;;;;;;6.71;100.00;99843.75;4996878;28;20186;-74
2022/11/20 00:56:06;;;;;;;7.13;6.53;;;;;;;6.76;100.00;99845.44;4991405;28;20290;-72
2022/11/20 00:58:33;;;;;;;6.80;6.23;;;;;;;6.76;100.00;99842.88;4987395;28;20213;-74
2022/11/20 01:01:00;;;;;;;6.90;6.37;;;;;;;6.75;100.00;99844.59;4992095;28;20183;-73
2022/11/20 01:03:26;;;;;;;7.17;6.50;;;;;;;6.75;100.00;99844.59;4989694;28;20216;-74
2022/11/20 01:05:51;;;;;;;7.10;6.40;;;;;;;6.77;100.00;99840.31;4988195;28;20209;-75
2022/11/20 01:08:16;;;;;;;7.10;6.50;;;;;;;6.78;100.00;99838.59;4989960;28;21148;-74
2022/11/20 01:10:42;;;;;;;7.53;6.93;;;;;;;6.78;100.00;99843.72;4987746;28;20199;-74
2022/11/20 01:15:51;;;;;;;7.33;6.73;;;;;;;6.80;100.00;99842.03;4991897;28;20288;-74
2022/11/20 01:18:16;;;;;;;7.77;7.17;;;;;;;6.81;100.00;99834.28;4990777;28;20689;-74
2022/11/20 01:20:41;;;;;;;7.40;6.50;;;;;;;6.82;100.00;99835.16;4992292;28;20180;-74
2022/11/20 01:23:07;;;;;;;7.93;7.07;;;;;;;6.81;100.00;99831.72;4994706;28;20226;-74
2022/11/20 01:25:34;;;;;;;7.77;7.00;;;;;;;6.83;100.00;99844.59;4992582;28;20240;-75
2022/11/20 01:27:59;;;;;;;6.93;6.37;;;;;;;6.84;100.00;99848.88;4995577;28;20218;-73
2022/11/20 01:30:25;;;;;;;7.20;6.60;;;;;;;6.85;100.00;99848.03;4995966;28;20203;-74
2022/11/20 01:32:50;;;;;;;7.23;6.63;;;;;;;6.86;100.00;99844.59;4985105;28;20202;-74
2022/11/20 01:35:16;;;;;;;7.37;6.77;;;;;;;6.86;100.00;99849.75;4985950;28;20207;-73
2022/11/20 01:37:41;;;;;;;7.50;6.80;;;;;;;6.86;100.00;99850.59;4989575;28;20206;-74
2022/11/20 01:40:07;;;;;;;7.17;6.57;;;;;;;6.88;100.00;99842.88;4991490;28;20953;-74
2022/11/20 01:45:51;;;;;;;7.47;6.80;;;;;;;6.84;100.00;99842.00;4987638;28;20683;-74
2022/11/20 01:48:19;;;;;;;7.47;6.77;;;;;;;6.81;100.00;99843.72;4982812;28;20217;-73
2022/11/20 01:50:44;;;;;;;6.93;6.37;;;;;;;6.76;100.00;99836.03;4988549;28;20219;-74
2022/11/20 01:53:14;;;;;;;7.57;6.87;;;;;;;6.74;100.00;99831.72;4993843;28;20667;-75
2022/11/20 01:55:46;;;;;;;7.90;7.20;;;;;;;6.69;100.00;99836.88;4986905;28;20193;-74
2022/11/20 01:58:12;;;;;;;7.07;6.50;;;;;;;6.62;100.00;99828.31;4986510;28;20224;-75
2022/11/20 02:00:37;;;;;;;7.27;6.60;;;;;;;6.55;100.00;99827.44;4988308;28;20202;-74
2022/11/20 02:03:08;;;;;;;7.37;6.77;;;;;;;6.50;100.00;99833.44;4986050;28;20215;-74
2022/11/20 02:05:39;;;;;;;7.67;6.97;;;;;;;6.44;100.00;99830.88;4988571;28;20269;-74
2022/11/20 02:08:06;;;;;;;7.00;6.40;;;;;;;6.46;100.00;99836.88;4994701;28;20254;-74
2022/11/20 02:10:32;;;;;;;7.23;6.53;;;;;;;6.46;100.00;99840.31;4990017;28;20214;-74
2022/11/20 02:15:43;;;;;;;6.70;6.07;;;;;;;6.42;100.00;99837.75;4983789;28;20206;-72
2022/11/20 02:18:09;;;;;;;6.60;6.00;;;;;;;6.37;100.00;99838.59;4986908;28;20630;-74
2022/11/20 02:20:35;;;;;;;6.87;6.17;;;;;;;6.40;100.00;99837.72;4985552;28;20202;-74
2022/11/20 02:23:16;;;;;;;6.83;6.20;;;;;;;6.42;100.00;99841.16;4988829;28;20191;-73
2022/11/20 02:25:43;;;;;;;6.63;6.13;;;;;;;6.43;100.00;99844.59;4992762;28;20181;-73
2022/11/20 02:28:09;;;;;;;6.47;5.97;;;;;;;6.48;100.00;99832.59;4984292;28;20214;-74
2022/11/20 02:30:35;;;;;;;6.60;5.97;;;;;;;6.53;100.00;99842.00;4991442;28;20250;-74
2022/11/20 02:33:00;;;;;;;6.03;5.53;;;;;;;6.57;100.00;99837.75;4983511;28;20188;-73
2022/11/20 02:35:25;;;;;;;7.77;6.27;;;;;;;6.60;100.00;99840.31;4987146;28;20293;-75
2022/11/20 02:37:54;;;;;;;5.40;4.90;;;;;;;6.64;100.00;99842.03;4982250;28;20266;-74
2022/11/20 02:40:20;;;;;;;5.60;5.10;;;;;;;6.66;100.00;99842.00;4989802;28;20186;-74
2022/11/20 02:42:45;;;;;;;5.77;5.23;;;;;;;6.69;100.00;99848.03;4987759;28;20355;-73
2022/11/20 02:45:11;;;;;;;5.27;4.80;;;;;;;6.72;100.00;99844.59;4985824;28;20278;-73
2022/11/20 02:47:37;;;;;;;6.10;5.60;;;;;;;6.75;100.00;99833.44;4983558;28;20567;-74
2022/11/20 02:50:03;;;;;;;6.00;4.97;;;;;;;6.77;100.00;99852.31;4984526;28;20290;-74
2022/11/20 02:52:30;;;;;;;5.63;5.13;;;;;;;6.79;100.00;99836.03;4984707;28;20191;-74
2022/11/20 02:54:55;;;;;;;6.50;5.17;;;;;;;6.82;100.00;99840.31;4993932;28;20238;-73
2022/11/20 02:57:20;;;;;;;6.30;5.17;;;;;;;6.81;100.00;99838.59;4993885;28;20219;-74
2022/11/20 02:59:46;;;;;;;6.10;5.50;;;;;;;6.82;100.00;99841.16;4989924;28;20189;-75
2022/11/20 03:02:11;;;;;;;5.73;5.23;;;;;;;6.84;100.00;99839.44;4986912;28;20261;-74
2022/11/20 03:04:36;;;;;;;5.80;5.20;;;;;;;6.85;100.00;99837.75;4986299;28;20286;-74
2022/11/20 03:07:02;;;;;;;5.93;5.33;;;;;;;6.87;100.00;99838.59;4987798;28;20187;-74
2022/11/20 03:09:27;;;;;;;6.07;5.57;;;;;;;6.88;100.00;99842.88;4989256;28;20222;-74
2022/11/20 03:11:53;;;;;;;5.50;5.00;;;;;;;6.85;100.00;99832.59;4989149;28;20234;-75
2022/11/20 03:14:18;;;;;;;5.17;4.77;;;;;;;6.86;100.00;99836.88;4985041;28;20615;-72
2022/11/20 03:16:43;;;;;;;5.53;5.10;;;;;;;6.87;100.00;99836.03;4997409;28;20238;-74
2022/11/20 03:19:09;;;;;;;5.67;5.17;;;;;;;6.86;100.00;99834.31;4991780;28;20294;-74
2022/11/20 03:21:35;;;;;;;5.20;4.73;;;;;;;6.86;100.00;99837.72;4983648;28;20183;-74
2022/11/20 03:24:01;;;;;;;6.40;5.53;;;;;;;6.86;100.00;99837.72;4984829;28;20660;-73
2022/11/20 03:26:27;;;;;;;5.20;4.80;;;;;;;6.86;100.00;99847.16;4985828;28;20585;-74
2022/11/20 03:28:57;;;;;;;5.43;5.03;;;;;;;6.88;100.00;99840.31;4984385;28;20234;-74
2022/11/20 03:31:31;;;;;;;5.00;4.60;;;;;;;6.90;100.00;99840.31;4989245;28;20184;-74
2022/11/20 03:33:58;;;;;;;5.20;4.80;;;;;;;6.89;100.00;99836.84;4982858;28;20195;-74
2022/11/20 03:36:24;;;;;;;5.03;4.60;;;;;;;6.89;100.00;99834.28;4989867;28;20631;-74
2022/11/20 03:38:49;;;;;;;5.33;4.83;;;;;;;6.89;100.00;99834.28;4979663;28;20209;-74
2022/11/20 03:41:20;;;;;;;6.27;5.00;;;;;;;6.89;100.00;99834.28;4989006;28;20200;-75
2022/11/20 03:43:50;;;;;;;5.40;4.90;;;;;;;6.89;100.00;99836.00;4984117;28;20198;-74
2022/11/20 03:46:16;;;;;;;5.37;4.87;;;;;;;6.88;100.00;99830.03;4985594;28;20581;-75
2022/11/20 03:48:41;;;;;;;5.23;4.73;;;;;;;6.90;100.00;99830.00;4982885;28;20253;-74
2022/11/20 03:51:22;;;;;;;5.50;5.00;;;;;;;6.90;100.00;99837.72;4986276;28;20202;-75
2022/11/20 03:53:49;;;;;;;5.90;5.30;;;;;;;6.89;100.00;99824.00;4982531;28;20190;-74
2022/11/20 03:56:16;;;;;;;5.57;5.07;;;;;;;6.90;100.00;99824.88;4988139;28;20278;-74
2022/11/20 03:58:42;;;;;;;6.20;5.60;;;;;;;6.91;100.00;99831.72;4988243;28;20210;-74
2022/11/20 04:01:12;;;;;;;5.60;5.10;;;;;;;6.91;100.00;99827.44;4985648;28;20225;-75
2022/11/20 04:03:39;;;;;;;5.63;5.07;;;;;;;6.91;100.00;99826.59;4984076;28;20231;-75
2022/11/20 04:06:07;;;;;;;6.27;5.27;;;;;;;6.92;100.00;99833.44;4987322;28;20197;-74
2022/11/20 04:08:32;;;;;;;5.90;5.30;;;;;;;6.91;100.00;99824.00;4992667;28;20206;-74
2022/11/20 04:11:09;;;;;;;5.67;5.17;;;;;;;6.92;100.00;99829.13;4988594;28;20216;-74
2022/11/20 04:13:34;;;;;;;6.10;5.50;;;;;;;6.90;100.00;99825.72;4989394;28;20211;-74
2022/11/20 04:15:59;;;;;;;5.73;5.13;;;;;;;6.90;100.00;99828.28;4984647;28;20236;-73
2022/11/20 04:18:24;;;;;;;5.47;4.97;;;;;;;6.90;100.00;99825.72;4988792;28;20238;-74
2022/11/20 04:20:50;;;;;;;5.43;4.93;;;;;;;6.91;100.00;99826.59;4986578;28;20185;-74
2022/11/20 04:23:15;;;;;;;5.50;5.03;;;;;;;6.91;100.00;99827.44;4986483;28;20189;-71
2022/11/20 04:25:40;;;;;;;5.43;4.93;;;;;;;6.91;100.00;99824.00;4986588;28;20676;-73
2022/11/20 04:28:06;;;;;;;5.60;5.10;;;;;;;6.91;100.00;99817.13;4984663;28;20220;-73
2022/11/20 04:30:31;;;;;;;6.03;5.53;;;;;;;6.92;100.00;99815.44;4983745;28;20190;-73
2022/11/20 04:32:56;;;;;;;6.27;5.70;;;;;;;6.92;100.00;99813.72;4985684;28;20192;-75
2022/11/20 04:35:22;;;;;;;6.57;5.97;;;;;;;6.92;100.00;99816.28;4987108;28;20235;-72
2022/11/20 04:37:47;;;;;;;5.50;5.00;;;;;;;6.93;100.00;99814.56;4993707;28;20705;-73
2022/11/20 04:40:12;;;;;;;5.53;5.03;;;;;;;6.94;100.00;99816.28;4985321;28;20196;-73
2022/11/20 04:42:37;;;;;;;5.70;5.20;;;;;;;6.93;100.00;99812.84;4984848;28;20201;-73
2022/11/20 04:45:03;;;;;;;5.40;5.00;;;;;;;6.91;100.00;99814.56;4982236;28;20212;-74
2022/11/20 04:47:28;;;;;;;5.90;5.40;;;;;;;6.90;100.00;99812.00;4983870;28;20211;-73
2022/11/20 04:49:54;;;;;;;5.27;4.77;;;;;;;6.91;100.00;99818.88;4982569;28;20195;-73
2022/11/20 04:52:19;;;;;;;5.50;5.00;;;;;;;6.90;100.00;99812.00;4989242;28;20184;-74
2022/11/20 04:54:44;;;;;;;5.77;5.00;;;;;;;6.92;100.00;99813.72;4984812;28;20323;-74
2022/11/20 04:57:10;;;;;;;5.33;4.90;;;;;;;6.90;100.00;99812.84;4985080;28;20246;-73
2022/11/20 04:59:35;;;;;;;5.73;4.63;;;;;;;6.90;100.00;99815.41;4986790;28;20210;-73
2022/11/20 05:02:00;;;;;;;5.20;4.70;;;;;;;6.90;100.00;99814.56;4991406;28;20201;-72
2022/11/20 05:04:25;;;;;;;5.00;4.60;;;;;;;6.89;100.00;99808.56;4984078;28;20195;-73
2022/11/20 05:06:51;;;;;;;5.10;4.50;;;;;;;6.90;100.00;99806.84;4987136;28;20202;-73
2022/11/20 05:09:17;;;;;;;5.00;4.60;;;;;;;6.90;100.00;99809.44;4984190;28;20236;-74
2022/11/20 05:11:43;;;;;;;4.93;4.53;;;;;;;6.91;100.00;99804.28;4984547;28;20249;-74
2022/11/20 05:14:08;;;;;;;4.60;4.20;;;;;;;6.90;100.00;99805.13;4984080;28;20188;-74
2022/11/20 05:16:35;;;;;;;5.13;4.60;;;;;;;6.88;100.00;99799.16;4983563;28;20215;-71
2022/11/20 05:19:00;;;;;;;4.90;4.50;;;;;;;6.89;100.00;99798.28;4983348;28;20218;-73
2022/11/20 05:21:27;;;;;;;5.10;4.13;;;;;;;6.88;100.00;99801.72;4988024;28;20194;-73
2022/11/20 05:23:52;;;;;;;4.47;4.07;;;;;;;6.86;100.00;99799.13;4985680;28;20191;-73
2022/11/20 05:26:21;;;;;;;4.43;4.07;;;;;;;6.86;100.00;99794.00;4993890;28;20194;-73
2022/11/20 05:28:47;;;;;;;4.50;4.10;;;;;;;6.88;100.00;99796.59;4987641;28;20219;-75
2022/11/20 05:31:18;;;;;;;4.57;4.17;;;;;;;6.90;100.00;99801.72;4988443;28;20208;-72
2022/11/20 05:33:44;;;;;;;4.23;3.80;;;;;;;6.89;100.00;99793.13;4983714;28;20317;-73
2022/11/20 05:36:12;;;;;;;4.10;3.80;;;;;;;6.88;100.00;99791.44;4987721;28;20291;-73
2022/11/20 05:38:37;;;;;;;4.33;3.90;;;;;;;6.89;100.00;99802.56;4984577;28;20210;-70
2022/11/20 05:41:07;;;;;;;6.43;4.17;;;;;;;6.88;100.00;99796.59;4987274;28;20199;-74
2022/11/20 05:43:34;;;;;;;4.30;3.90;;;;;;;6.88;100.00;99794.00;4987332;28;20280;-74
2022/11/20 05:46:00;;;;;;;3.83;3.43;;;;;;;6.90;100.00;99792.25;4991287;28;20179;-74
2022/11/20 05:48:25;;;;;;;4.10;3.80;;;;;;;6.89;100.00;99790.56;4982949;28;20228;-73
2022/11/20 05:50:51;;;;;;;3.77;3.47;;;;;;;6.88;100.00;99790.56;4990776;28;20193;-72
2022/11/20 05:53:16;;;;;;;4.00;3.60;;;;;;;6.90;100.00;99786.28;4987275;28;20271;-73
2022/11/20 05:55:41;;;;;;;3.77;3.47;;;;;;;6.89;100.00;99792.28;4983270;28;20253;-72
2022/11/20 05:58:07;;;;;;;3.73;3.40;;;;;;;6.88;100.00;99793.13;4984929;28;20922;-73
2022/11/20 06:00:32;;;;;;;3.80;3.30;;;;;;;6.90;100.00;99792.25;4991295;28;20284;-74
2022/11/20 06:02:57;;;;;;;3.70;3.27;;;;;;;6.88;100.00;99788.88;4985123;28;20662;-72
2022/11/20 06:05:22;;;;;;;3.70;3.40;;;;;;;6.89;100.00;99782.84;4985378;28;20194;-73
2022/11/20 06:07:48;;;;;;;3.30;3.00;;;;;;;6.88;100.00;99788.00;4994965;28;20222;-72
2022/11/20 06:10:13;;;;;;;3.73;3.40;;;;;;;6.90;100.00;99784.56;4987758;28;20204;-73
2022/11/20 06:12:38;;;;;;;3.67;3.37;;;;;;;6.90;100.00;99786.28;4986409;28;20207;-71
2022/11/20 06:15:05;;;;;;;3.73;3.13;;;;;;;6.88;100.00;99786.28;4989703;28;20218;-73
2022/11/20 06:17:30;;;;;;;3.20;2.90;;;;;;;6.90;100.00;99792.25;4983949;28;20220;-72
2022/11/20 06:19:56;;;;;;;3.50;3.20;;;;;;;6.92;100.00;99798.28;4985551;28;20199;-73
2022/11/20 06:22:21;;;;;;;3.50;3.13;;;;;;;6.92;100.00;99792.28;4984979;28;20576;-73
2022/11/20 06:24:46;;;;;;;3.50;3.20;;;;;;;6.92;100.00;99794.84;4986911;28;20188;-73
2022/11/20 06:27:11;;;;;;;3.30;3.00;;;;;;;6.94;100.00;99790.56;4985649;28;20212;-74
2022/11/20 06:29:37;;;;;;;4.10;3.53;;;;;;;6.94;100.00;99800.84;4986461;28;20246;-73
2022/11/20 06:32:02;;;;;;;3.50;3.20;;;;;;;6.93;100.00;99801.72;4993470;28;20235;-73
2022/11/20 06:34:27;;;;;;;4.40;3.83;;;;;;;6.93;100.00;99799.16;4985003;28;20277;-74
2022/11/20 06:36:53;;;;;;;3.83;3.13;;;;;;;6.91;100.00;99796.56;4990181;28;20206;-73
2022/11/20 06:39:18;;;;;;;3.77;3.40;;;;;;;6.91;100.00;99791.41;4990235;28;20548;-73
2022/11/20 06:41:43;;;;;;;3.83;3.53;;;;;;;6.91;100.00;99800.84;4993417;28;20206;-73
2022/11/20 06:44:09;;;;;;;3.50;3.20;;;;;;;6.89;100.00;99805.97;4990616;28;20219;-72
2022/11/20 06:46:34;;;;;;;4.13;3.73;;;;;;;6.85;100.00;99800.00;5001485;28;20224;-73
2022/11/20 06:48:59;;;;;;;4.17;3.77;;;;;;;6.85;100.00;99810.28;4993697;28;20804;-73
2022/11/20 06:51:25;;;;;;;3.90;3.50;;;;;;;6.89;100.00;99815.44;4998838;28;20202;-73
2022/11/20 06:53:50;;;;;;;3.93;3.57;;;;;;;6.85;100.00;99807.72;5000184;28;20272;-72
2022/11/20 06:56:15;;;;;;;3.80;3.40;;;;;;;6.84;100.00;99807.72;4987510;28;20216;-75
2022/11/20 06:58:41;;;;;;;3.83;3.53;;;;;;;6.84;100.00;99816.28;5002740;28;20594;-73
2022/11/20 07:01:11;;;;;;;3.70;3.40;;;;;;;6.83;100.00;99816.31;4991253;28;20182;-73
2022/11/20 07:03:37;;;;;;;3.50;3.20;;;;;;;6.84;100.00;99820.59;4996159;28;20209;-73
2022/11/20 07:06:03;;;;;;;4.03;3.57;;;;;;;6.88;100.00;99822.31;4986353;28;20218;-74
2022/11/20 07:08:28;;;;;;;4.10;3.80;;;;;;;6.91;100.00;99817.13;4973547;28;20222;-74
2022/11/20 07:10:58;;;;;;;3.70;3.40;;;;;;;6.91;100.00;99826.59;4985025;28;20180;-72
2022/11/20 07:13:23;;;;;;;3.83;3.47;;;;;;;6.90;100.00;99830.00;4995053;28;20671;-76
2022/11/20 07:15:49;;;;;;;3.63;3.27;;;;;;;6.90;100.00;99827.44;4982574;28;20223;-73
2022/11/20 07:18:14;;;;;;;3.43;3.23;;;;;;;6.89;100.00;99829.13;4989614;28;20322;-74
2022/11/20 07:20:39;;;;;;;4.00;3.70;;;;;;;6.88;100.00;99830.03;5000067;28;20652;-73
2022/11/20 07:23:05;;;;;;;3.77;3.37;;;;;;;6.86;100.00;99821.44;4993170;28;20191;-73
2022/11/20 07:25:30;;;;;;;4.27;3.87;;;;;;;6.85;100.00;99836.00;4995576;28;20187;-74
2022/11/20 07:27:59;;;;;;;3.83;3.53;;;;;;;6.89;100.00;99828.28;4984532;28;20300;-72
2022/11/20 07:30:27;;;;;;;4.10;3.70;;;;;;;6.92;100.00;99833.44;4980919;28;20743;-76
2022/11/20 07:32:55;;;;;;;3.87;3.57;;;;;;;6.93;100.00;99837.72;4982863;28;20262;-72
2022/11/20 07:35:20;;;;;;;3.73;3.43;;;;;;;6.93;100.00;99837.72;4985438;28;20259;-73
2022/11/20 07:37:47;;;;;;;3.77;3.40;;;;;;;6.97;100.00;99844.56;4988603;28;20208;-73
2022/11/20 07:40:13;;;;;;;4.10;3.70;;;;;;;6.99;100.00;99836.00;4985261;28;20200;-73
2022/11/20 07:42:38;;;;;;;4.40;3.90;;;;;;;7.01;100.00;99842.00;4988941;28;20190;-72
2022/11/20 07:45:07;;;;;;;4.07;3.70;;;;;;;7.05;100.00;99830.00;4981513;28;20190;-73
2022/11/20 07:47:36;;;;;;;3.70;3.23;;;;;;;7.07;100.00;99843.72;4983640;28;20215;-75
2022/11/20 07:50:01;;;;;;;4.40;3.67;;;;;;;7.05;100.00;99834.25;4985006;28;20182;-75
2022/11/20 07:52:27;;;;;;;3.67;3.37;;;;;;;7.06;100.00;99841.13;4976590;28;20192;-76
2022/11/20 07:54:52;;;;;;;4.87;3.80;;;;;;;7.08;100.00;99844.56;4977324;28;21161;-76
2022/11/20 07:57:17;;;;;;;3.73;3.33;;;;;;;7.11;100.00;99844.56;4984988;28;20274;-74
2022/11/20 07:59:43;;;;;;;3.60;3.30;;;;;;;7.10;100.00;99847.97;4987379;28;20670;-73
2022/11/20 08:02:10;;;;;;;4.17;3.77;;;;;;;7.14;100.00;99852.28;4981327;28;20269;-76
2022/11/20 08:04:36;;;;;;;3.77;3.40;;;;;;;7.16;100.00;99853.97;4974227;28;20192;-75
2022/11/20 08:07:02;;;;;;;3.40;3.10;;;;;;;7.18;100.00;99859.13;4981201;28;20188;-74
2022/11/20 08:09:28;;;;;;;3.60;3.30;;;;;;;7.17;100.00;99854.84;4979897;28;20211;-76
2022/11/20 08:14:45;;;;;;;3.67;3.20;;;;;;;7.21;100.00;99865.97;4959466;28;20706;-74
2022/11/20 08:17:11;;;;;;;3.90;3.50;;;;;;;7.21;100.00;99866.81;4985152;28;20187;-74
2022/11/20 08:19:36;;;;;;;3.53;3.23;;;;;;;7.22;100.00;99871.13;4984804;28;20187;-75
2022/11/20 08:22:01;;;;;;;4.07;3.30;;;;;;;7.22;100.00;99865.97;4975266;28;20281;-75
2022/11/20 08:24:27;;;;;;;3.13;2.83;;;;;;;7.22;100.00;99878.84;4987098;28;20677;-75
2022/11/20 08:26:52;;;;;;;3.00;2.80;;;;;;;7.23;100.00;99874.56;4987388;28;20286;-76
2022/11/20 08:29:18;;;;;;;3.20;2.90;;;;;;;7.25;100.00;99881.41;4988594;28;20226;-74
2022/11/20 08:31:43;;;;;;;3.30;3.10;;;;;;;7.29;100.00;99879.69;4986896;28;20187;-74
2022/11/20 08:34:09;;;;;;;2.90;2.60;;;;;;;7.31;100.00;99877.97;4986586;28;20223;-73
2022/11/20 08:36:35;;;;;;;4.40;3.20;;;;;;;7.33;100.00;99884.81;4987576;28;20352;-74
2022/11/20 08:39:00;;;;;;;3.10;2.80;;;;;;;7.35;100.00;99889.09;4987624;28;20205;-73
2022/11/20 08:41:30;;;;;;;3.73;3.20;;;;;;;7.37;100.00;99887.38;4984527;28;20198;-74
2022/11/20 08:43:58;;;;;;;4.00;3.30;;;;;;;7.37;100.00;99893.41;4984650;28;20189;-74
2022/11/20 08:46:25;;;;;;;3.70;3.30;;;;;;;7.36;100.00;99895.97;4986895;28;20216;-74
2022/11/20 08:48:51;;;;;;;3.47;3.20;;;;;;;7.35;100.00;99884.81;4983366;28;20207;-74
2022/11/20 08:51:17;;;;;;;3.23;2.93;;;;;;;7.35;100.00;99892.56;4984424;28;20194;-73
2022/11/20 08:53:43;;;;;;;3.27;3.03;;;;;;;7.35;100.00;99891.69;4983915;28;20233;-73
2022/11/20 08:56:09;;;;;;;3.60;3.30;;;;;;;7.37;100.00;99897.69;4972530;28;20230;-74
2022/11/20 08:58:35;;;;;;;3.30;3.03;;;;;;;7.39;100.00;99901.13;4987573;28;20201;-74
2022/11/20 09:01:01;;;;;;;3.90;3.10;;;;;;;7.39;100.00;99899.41;4987824;28;20180;-73
2022/11/20 09:03:27;;;;;;;3.33;3.07;;;;;;;7.39;100.00;99903.69;4990960;28;20190;-74
2022/11/20 09:06:00;;;;;;;3.27;2.80;;;;;;;7.36;100.00;99908.84;4997527;28;20183;-74
2022/11/20 09:08:26;;;;;;;3.40;2.97;;;;;;;7.36;100.00;99914.00;4986144;28;20207;-74
2022/11/20 09:10:53;;;;;;;3.00;2.70;;;;;;;7.35;100.00;99910.56;4985866;28;20183;-73
2022/11/20 09:13:19;;;;;;;3.27;3.07;;;;;;;7.30;100.00;99905.44;4985829;28;20593;-73
2022/11/20 09:15:44;;;;;;;3.67;3.47;;;;;;;7.31;100.00;99921.72;4986872;28;20210;-73
2022/11/20 09:18:10;;;;;;;4.93;4.43;;;;;;;7.31;100.00;99932.03;4988423;28;20310;-73
2022/11/20 09:20:36;;;;;;;5.40;4.90;;;;;;;7.34;100.00;99924.31;4986917;28;20282;-74
2022/11/20 09:23:02;;;;;;;7.17;6.40;;;;;;;7.36;100.00;99924.28;4980972;28;20198;-73
2022/11/20 09:25:27;;;;;;;8.93;8.03;;;;;;;7.37;100.00;99926.00;4981061;28;20188;-74
2022/11/20 09:27:57;;;;;;;8.23;7.53;;;;;;;7.38;100.00;99928.59;4979305;28;20277;-73
2022/11/20 09:30:22;;;;;;;10.60;9.50;;;;;;;7.45;100.00;99926.88;4984248;28;21077;-74
2022/11/20 09:32:47;;;;;;;10.00;9.00;;;;;;;7.54;100.00;99931.97;4983921;28;20272;-74
2022/11/20 09:35:14;;;;;;;9.87;8.87;;;;;;;7.64;100.00;99937.97;4981407;28;20580;-73
2022/11/20 09:37:40;;;;;;;10.00;9.03;;;;;;;7.63;100.00;99925.94;4984383;28;22183;-74
2022/11/20 09:40:06;;;;;;;17.60;15.33;;;;;;;7.61;100.00;99928.53;4984817;28;20196;-73
2022/11/20 09:42:45;;;;;;;17.23;12.97;;;;;;;7.62;100.00;99931.97;4985649;28;20196;-72
2022/11/20 09:45:31;;;;;;;17.70;14.60;;;;;;;7.64;100.00;99935.41;4987485;28;20177;-73
2022/11/20 09:48:06;;;;;;;18.60;15.37;;;;;;;7.68;100.00;99934.53;4988229;28;20235;-76
2022/11/20 09:50:54;;;;;;;60.83;42.40;;;;;;;7.74;100.00;99937.06;4986811;28;20188;-73
2022/11/20 09:53:26;;;;;;;39.10;31.83;;;;;;;7.79;100.00;99939.63;4982736;28;20173;-72
2022/11/20 09:55:52;;;;;;;17.47;15.63;;;;;;;7.82;100.00;99942.19;4987565;28;20212;-72
2022/11/20 09:58:40;;;;;;;21.57;17.03;;;;;;;7.91;100.00;99936.16;4986002;28;20213;-73
2022/11/20 10:01:13;;;;;;;49.37;34.00;;;;;;;7.99;100.00;99936.13;4984348;28;20189;-72
2022/11/20 10:04:00;;;;;;;34.97;29.87;;;;;;;8.03;100.00;99935.28;4985554;28;20240;-73
2022/11/20 10:06:50;;;;;;;50.67;44.13;;;;;;;8.01;100.00;99940.44;4981843;28;20186;-73
2022/11/20 10:09:39;;;;;;;25.57;21.83;;;;;;;7.99;100.00;99936.13;4981704;28;20204;-75
2022/11/20 10:12:17;;;;;;;18.03;16.13;;;;;;;8.01;100.00;99937.88;4983088;28;20212;-73
2022/11/20 10:15:01;;;;;;;23.03;20.83;;;;;;;8.05;100.00;99936.13;4977395;28;20242;-73
2022/11/20 10:17:42;;;;;;;14.57;13.10;;;;;;;8.08;100.00;99936.13;4982555;28;22316;-75
2022/11/20 10:20:16;;;;;;;16.80;15.13;;;;;;;8.22;100.00;99936.91;4986767;28;20200;-72
2022/11/20 10:22:47;;;;;;;16.27;14.57;;;;;;;8.39;100.00;99939.38;4985043;28;20189;-73
2022/11/20 10:25:19;;;;;;;13.63;12.23;;;;;;;8.54;100.00;99937.59;4984221;28;20629;-73
2022/11/20 10:28:00;;;;;;;18.93;17.23;;;;;;;8.71;100.00;99929.75;4980612;28;20224;-72
2022/11/20 10:30:27;;;;;;;8.93;8.03;;;;;;;8.92;100.00;99930.47;4980037;28;20185;-74
2022/11/20 10:32:58;;;;;;;21.80;19.80;;;;;;;9.07;100.00;99927.75;4985013;28;20205;-73
2022/11/20 10:35:41;;;;;;;13.37;12.17;;;;;;;9.14;100.00;99919.09;4983965;28;20239;-75
2022/11/20 10:38:34;;;;;;;19.03;17.43;;;;;;;9.17;100.00;99913.06;4984090;28;20300;-73
2022/11/20 10:43:49;;;;;;;7.50;6.90;;;;;;;9.27;100.00;99900.91;4985374;28;20629;-74
2022/11/20 10:46:23;;;;;;;5.60;5.10;;;;;;;9.38;100.00;99904.22;4984093;28;20181;-73
2022/11/20 10:48:49;;;;;;;4.90;4.50;;;;;;;9.54;100.00;99902.34;4983784;28;20213;-74
2022/11/20 10:51:30;;;;;;;4.90;3.83;;;;;;;9.78;100.00;99895.19;4984632;28;20190;-73
2022/11/20 10:54:14;;;;;;;5.70;5.20;;;;;;;9.91;100.00;99888.13;4985339;28;20696;-75
2022/11/20 10:57:07;;;;;;;6.60;6.10;;;;;;;9.94;100.00;99889.84;4984821;28;20229;-73
2022/11/20 10:59:51;;;;;;;6.03;5.30;;;;;;;10.16;100.00;99885.22;4983966;28;20220;-73
2022/11/20 11:02:19;;;;;;;3.37;3.07;;;;;;;10.31;100.00;99878.97;4986808;28;20247;-75
2022/11/20 11:04:52;;;;;;;3.10;2.80;;;;;;;10.43;100.00;99871.09;4988155;28;20271;-73
2022/11/20 11:07:30;;;;;;;3.07;2.77;;;;;;;10.55;100.00;99871.78;4981473;28;20185;-75
2022/11/20 11:09:56;;;;;;;2.73;2.53;;;;;;;10.65;100.00;99862.97;4984539;28;20239;-73
2022/11/20 11:12:24;;;;;;;2.80;2.60;;;;;;;10.82;100.00;99865.28;4980643;28;20233;-73
2022/11/20 11:14:52;;;;;;;2.40;2.20;;;;;;;10.84;100.00;99868.69;4984530;28;20272;-74
2022/11/20 11:17:23;;;;;;;3.40;2.50;;;;;;;10.95;100.00;99853.84;4984619;28;20220;-74
2022/11/20 11:20:11;;;;;;;2.63;2.43;;;;;;;10.93;100.00;99852.16;4986353;28;20193;-75
2022/11/20 11:22:54;;;;;;;2.63;2.27;;;;;;;10.83;100.00;99835.91;4977342;28;20216;-75
2022/11/20 11:25:33;;;;;;;2.73;2.53;;;;;;;10.59;100.00;99843.22;4981604;28;20666;-75
2022/11/20 11:28:24;;;;;;;2.60;2.10;;;;;;;10.36;100.00;99836.63;4986281;28;20790;-75
2022/11/20 11:30:49;;;;;;;2.83;2.37;;;;;;;10.21;100.00;99836.88;4985165;28;20733;-76
2022/11/20 11:33:21;;;;;;;2.33;2.10;;;;;;;10.14;100.00;99833.50;4983829;28;20292;-74
2022/11/20 11:35:49;;;;;;;2.50;2.30;;;;;;;10.09;100.00;99826.72;4979716;28;20224;-75
2022/11/20 11:38:42;;;;;;;3.47;3.13;;;;;;;10.08;100.00;99820.69;4981719;28;20240;-74
2022/11/20 11:41:17;;;;;;;5.73;4.13;;;;;;;9.97;100.00;99822.59;4988163;28;20196;-74
2022/11/20 11:46:37;;;;;;;6.63;5.93;;;;;;;10.07;100.00;99809.47;4981470;28;20188;-74
2022/11/20 11:49:08;;;;;;;7.73;6.93;;;;;;;10.23;100.00;99822.19;4984174;28;20209;-74
2022/11/20 11:51:39;;;;;;;3.50;2.77;;;;;;;10.44;100.00;99810.69;4981015;28;20193;-74
2022/11/20 11:54:18;;;;;;;3.83;2.97;;;;;;;10.65;100.00;99801.72;4984848;28;20659;-74